Time;durP1;ratioP1;P1;durP2;ratioP2;P2;SDS_P1;SDS_P2;PMS_P1;PMS_P2;Temp;Humidity;BMP_temperature;BMP_pressure;BME280_temperature;BME280_humidity;BME280_pressure;Samples;Min_cycle;Max_cycle;Signal;HPM_P1;HPM_P2
2021/01/27 00:01:27;;;;;;;11.80;5.90;;;;;;;-2.57;100.00;98342.19;3713405;78;44661;-17
2021/01/27 00:06:34;;;;;;;10.07;5.43;;;;;;;-2.45;100.00;98342.03;3681940;79;44087;-17
2021/01/27 00:11:41;;;;;;;9.73;5.20;;;;;;;-2.37;100.00;98341.14;3714366;78;43678;-17
2021/01/27 00:16:47;;;;;;;10.00;5.50;;;;;;;-2.28;100.00;98327.93;3698058;80;44072;-16
2021/01/27 00:21:53;;;;;;;8.67;5.10;;;;;;;-2.31;100.00;98331.59;3739820;77;43500;-17
2021/01/27 00:27:00;;;;;;;9.23;5.47;;;;;;;-2.29;100.00;98327.55;3727057;79;43714;-17
2021/01/27 00:32:07;;;;;;;10.10;5.00;;;;;;;-2.29;100.00;98320.47;3732064;77;43307;-17
2021/01/27 00:37:13;;;;;;;10.40;5.30;;;;;;;-2.20;100.00;98330.55;3728188;77;43994;-16
2021/01/27 00:42:21;;;;;;;8.90;5.60;;;;;;;-2.11;100.00;98323.89;3746768;76;43362;-16
2021/01/27 00:47:27;;;;;;;10.43;5.77;;;;;;;-2.01;100.00;98318.97;3769324;78;44015;-16
2021/01/27 00:52:35;;;;;;;9.57;5.50;;;;;;;-1.95;100.00;98305.45;3780533;77;43376;-16
2021/01/27 00:57:42;;;;;;;11.07;6.03;;;;;;;-1.90;100.00;98307.83;3760624;78;43374;-16
2021/01/27 01:02:48;;;;;;;9.97;5.80;;;;;;;-1.80;100.00;98306.82;3772513;77;43677;-16
2021/01/27 01:07:55;;;;;;;11.37;5.47;;;;;;;-1.80;100.00;98299.77;3726447;78;43682;-16
2021/01/27 01:13:03;;;;;;;13.67;6.53;;;;;;;-1.83;100.00;98304.38;3732730;78;44067;-15
2021/01/27 01:18:10;;;;;;;10.20;5.63;;;;;;;-1.85;100.00;98301.80;3688644;78;44093;-16
2021/01/27 01:23:19;;;;;;;12.77;6.27;;;;;;;-1.77;100.00;98300.05;3694769;78;43426;-16
2021/01/27 01:28:26;;;;;;;11.37;5.77;;;;;;;-1.76;100.00;98295.16;3746757;78;43678;-16
2021/01/27 01:33:34;;;;;;;11.23;5.63;;;;;;;-1.72;100.00;98289.61;3756406;77;44060;-16
2021/01/27 01:38:40;;;;;;;11.20;6.27;;;;;;;-1.72;100.00;98284.81;3746662;78;44082;-16
2021/01/27 01:43:47;;;;;;;11.87;5.80;;;;;;;-1.77;100.00;98271.00;3754124;77;43757;-16
2021/01/27 01:48:56;;;;;;;9.63;5.17;;;;;;;-1.84;100.00;98270.98;3748830;77;43443;-16
2021/01/27 01:54:04;;;;;;;9.17;5.13;;;;;;;-1.79;100.00;98268.91;3770584;77;44587;-16
2021/01/27 01:59:12;;;;;;;9.80;5.50;;;;;;;-1.74;100.00;98261.59;3765827;78;44047;-16
2021/01/27 02:04:19;;;;;;;9.37;5.50;;;;;;;-1.72;100.00;98267.64;3772813;77;43119;-16
2021/01/27 02:09:25;;;;;;;7.83;4.73;;;;;;;-1.70;100.00;98271.02;3775298;77;43404;-17
2021/01/27 02:14:40;;;;;;;9.47;4.90;;;;;;;-1.66;100.00;98266.44;3770475;77;44123;-16
2021/01/27 02:20:14;;;;;;;10.73;5.67;;;;;;;-1.63;100.00;98268.42;3750525;78;44093;-16
2021/01/27 02:25:45;;;;;;;11.93;5.57;;;;;;;-1.59;100.00;98264.65;3759760;77;44586;-16
2021/01/27 02:31:03;;;;;;;10.83;5.47;;;;;;;-1.56;100.00;98264.48;3749730;77;43068;-17
2021/01/27 02:36:15;;;;;;;8.60;4.67;;;;;;;-1.52;100.00;98259.86;3747717;77;44137;-16
2021/01/27 02:41:24;;;;;;;10.73;5.10;;;;;;;-1.50;100.00;98259.80;3743184;77;44076;-17
2021/01/27 02:46:34;;;;;;;9.53;5.90;;;;;;;-1.46;100.00;98262.16;3744140;77;43680;-17
2021/01/27 02:51:44;;;;;;;10.87;5.83;;;;;;;-1.41;100.00;98264.53;3750214;77;43698;-17
2021/01/27 02:56:54;;;;;;;10.73;6.33;;;;;;;-1.35;100.00;98259.36;3747188;78;44800;-16
2021/01/27 03:02:03;;;;;;;9.57;5.53;;;;;;;-1.27;100.00;98254.46;3764314;77;44121;-17
2021/01/27 03:07:12;;;;;;;11.43;6.33;;;;;;;-1.22;100.00;98240.97;3753600;77;44065;-16
2021/01/27 03:12:18;;;;;;;13.63;5.83;;;;;;;-1.22;100.00;98241.84;3746534;77;43982;-17
2021/01/27 03:17:26;;;;;;;9.90;5.83;;;;;;;-1.20;100.00;98240.41;3753994;77;43360;-16
2021/01/27 03:22:35;;;;;;;10.40;6.07;;;;;;;-1.17;100.00;98233.63;3748210;77;43284;-16
2021/01/27 03:27:44;;;;;;;9.00;4.93;;;;;;;-1.14;100.00;98242.70;3749977;78;44087;-16
2021/01/27 03:32:53;;;;;;;11.73;5.83;;;;;;;-1.13;100.00;98236.48;3758671;77;43382;-17
2021/01/27 03:38:02;;;;;;;10.47;5.57;;;;;;;-1.16;100.00;98244.09;3751866;78;44582;-16
2021/01/27 03:43:11;;;;;;;10.60;5.67;;;;;;;-1.14;100.00;98244.03;3754395;77;43719;-17
2021/01/27 03:48:21;;;;;;;13.43;6.23;;;;;;;-1.11;100.00;98237.21;3751823;77;44069;-17
2021/01/27 03:53:30;;;;;;;14.43;6.80;;;;;;;-1.08;100.00;98238.36;3754522;77;43685;-17
2021/01/27 03:58:38;;;;;;;11.67;6.60;;;;;;;-1.08;100.00;98244.97;3753090;77;44063;-17
2021/01/27 04:03:44;;;;;;;11.03;5.87;;;;;;;-1.10;100.00;98233.17;3760209;77;43385;-17
2021/01/27 04:08:50;;;;;;;12.93;6.73;;;;;;;-1.14;100.00;98222.88;3752204;78;44061;-16
2021/01/27 04:13:56;;;;;;;13.90;7.40;;;;;;;-1.16;100.00;98235.33;3757729;77;44054;-17
2021/01/27 04:19:04;;;;;;;14.17;7.37;;;;;;;-1.23;100.00;98220.80;3730252;78;43974;-17
2021/01/27 04:24:10;;;;;;;13.33;7.20;;;;;;;-1.28;100.00;98218.40;3718991;77;43722;-17
2021/01/27 04:29:16;;;;;;;13.83;7.80;;;;;;;-1.36;100.00;98208.77;3714030;78;44084;-16
2021/01/27 04:34:22;;;;;;;13.37;7.50;;;;;;;-1.36;100.00;98204.34;3641122;79;43704;-16
2021/01/27 04:39:29;;;;;;;12.50;7.30;;;;;;;-1.43;100.00;98209.14;3724020;78;44772;-17
2021/01/27 04:44:35;;;;;;;12.27;7.00;;;;;;;-1.51;100.00;98199.48;3720268;77;43691;-16
2021/01/27 04:49:44;;;;;;;13.20;7.20;;;;;;;-1.62;100.00;98199.27;3640266;81;43285;-16
2021/01/27 04:55:01;;;;;;;11.63;6.60;;;;;;;-1.72;100.00;98192.37;3730071;77;44074;-16
2021/01/27 05:00:18;;;;;;;13.13;7.00;;;;;;;-1.77;100.00;98193.09;3714395;77;43339;-17
2021/01/27 05:05:27;;;;;;;11.43;6.73;;;;;;;-1.79;100.00;98185.72;3643407;79;44012;-17
2021/01/27 05:10:39;;;;;;;13.73;7.23;;;;;;;-1.81;100.00;98179.67;3644398;79;43717;-16
2021/01/27 05:15:45;;;;;;;14.23;7.20;;;;;;;-1.89;100.00;98190.23;3655771;79;44161;-17
2021/01/27 05:20:52;;;;;;;13.33;7.23;;;;;;;-2.01;100.00;98192.25;3673460;80;43748;-17
2021/01/27 05:26:03;;;;;;;14.27;7.73;;;;;;;-1.98;100.00;98181.52;3744027;77;43697;-16
2021/01/27 05:31:09;;;;;;;15.70;7.83;;;;;;;-1.94;100.00;98168.98;3738037;77;45095;-16
2021/01/27 05:36:19;;;;;;;16.23;7.97;;;;;;;-1.95;100.00;98174.75;3685444;78;43345;-16
2021/01/27 05:41:28;;;;;;;16.73;8.80;;;;;;;-1.89;100.00;98180.98;3676916;78;43677;-17
2021/01/27 05:46:37;;;;;;;15.10;7.93;;;;;;;-1.86;100.00;98172.89;3677426;79;44217;-16
2021/01/27 05:51:44;;;;;;;15.20;7.90;;;;;;;-1.81;100.00;98173.08;3733406;77;43411;-16
2021/01/27 05:56:51;;;;;;;16.30;8.57;;;;;;;-1.77;100.00;98162.72;3731126;79;43726;-16
2021/01/27 06:02:01;;;;;;;15.77;8.67;;;;;;;-1.74;100.00;98169.98;3738341;77;44098;-16
2021/01/27 06:07:11;;;;;;;17.43;9.23;;;;;;;-1.67;100.00;98177.09;3675489;80;43377;-17
2021/01/27 06:12:27;;;;;;;18.73;9.50;;;;;;;-1.64;100.00;98180.88;3669564;78;43986;-16
2021/01/27 06:17:37;;;;;;;16.30;8.80;;;;;;;-1.62;100.00;98179.45;3735321;79;43460;-17
2021/01/27 06:23:09;;;;;;;19.00;9.43;;;;;;;-1.63;100.00;98172.02;3731932;77;43445;-17
2021/01/27 06:28:25;;;;;;;18.03;9.50;;;;;;;-1.61;100.00;98162.66;3674595;80;43685;-17
2021/01/27 06:33:40;;;;;;;16.83;8.77;;;;;;;-1.63;100.00;98162.77;3671346;78;43397;-17
2021/01/27 06:38:58;;;;;;;19.87;9.70;;;;;;;-1.67;100.00;98158.59;3678292;80;43465;-17
2021/01/27 06:44:24;;;;;;;14.07;8.17;;;;;;;-1.75;100.00;98158.20;3735447;77;44069;-16
2021/01/27 06:49:56;;;;;;;14.17;8.00;;;;;;;-1.80;100.00;98156.30;3733801;79;45158;-16
2021/01/27 06:55:19;;;;;;;14.17;8.20;;;;;;;-1.88;100.00;98158.05;3732486;77;43440;-16
2021/01/27 07:00:43;;;;;;;15.93;8.60;;;;;;;-1.91;100.00;98152.98;3730564;79;43468;-19
2021/01/27 07:06:37;;;;;;;16.40;8.17;;;;;;;-2.00;100.00;98158.80;3738974;77;43434;-19
2021/01/27 07:11:47;;;;;;;14.53;7.90;;;;;;;-2.09;100.00;98154.89;3738613;77;44152;-18
2021/01/27 07:17:05;;;;;;;13.77;8.30;;;;;;;-2.19;100.00;98152.79;3741897;77;26393;-18
2021/01/27 07:22:14;;;;;;;15.23;7.90;;;;;;;-2.24;100.00;98159.27;3728743;77;44435;-18
2021/01/27 07:27:23;;;;;;;15.13;8.33;;;;;;;-2.25;100.00;98161.52;3729260;79;43288;-19
2021/01/27 07:32:32;;;;;;;16.47;8.60;;;;;;;-2.23;100.00;98155.66;3733923;77;44610;-19
2021/01/27 07:37:42;;;;;;;17.43;8.70;;;;;;;-2.11;100.00;98162.05;3734436;77;44166;-19
2021/01/27 07:42:52;;;;;;;18.50;8.80;;;;;;;-2.00;100.00;98158.31;3741114;77;43408;-19
2021/01/27 07:48:08;;;;;;;14.70;8.23;;;;;;;-1.93;100.00;98147.77;3730984;77;44444;-20
2021/01/27 07:53:20;;;;;;;14.30;8.17;;;;;;;-1.88;100.00;98147.50;3736162;77;44427;-19
2021/01/27 07:58:30;;;;;;;14.40;8.20;;;;;;;-1.79;100.00;98146.98;3729776;77;44048;-19
2021/01/27 08:03:50;;;;;;;15.20;9.20;;;;;;;-1.63;100.00;98144.73;3733684;77;43319;-20
2021/01/27 08:09:01;;;;;;;17.47;10.23;;;;;;;-1.52;100.00;98145.42;3738458;77;44061;-20
2021/01/27 08:14:09;;;;;;;14.13;8.57;;;;;;;-1.43;100.00;98150.14;3736423;77;43717;-20
2021/01/27 08:19:24;;;;;;;14.10;7.70;;;;;;;-1.38;100.00;98154.70;3727177;79;42659;-20
2021/01/27 08:24:58;;;;;;;13.67;9.07;;;;;;;-1.32;100.00;98150.34;3730366;77;44083;-19
2021/01/27 08:30:27;;;;;;;18.40;9.83;;;;;;;-1.17;100.00;98150.36;3597503;81;43301;-20
2021/01/27 08:36:05;;;;;;;16.07;9.53;;;;;;;-1.04;100.00;98156.59;3739486;77;43714;-20
2021/01/27 08:41:32;;;;;;;16.27;9.07;;;;;;;-0.91;100.00;98155.84;3618157;79;44033;-20
2021/01/27 08:46:45;;;;;;;14.03;8.60;;;;;;;-0.80;100.00;98148.08;3637656;79;43451;-19
2021/01/27 08:51:53;;;;;;;14.90;9.10;;;;;;;-0.74;100.00;98149.00;3635716;79;44463;-20
2021/01/27 08:57:20;;;;;;;13.83;8.60;;;;;;;-0.67;100.00;98149.47;3738432;77;44479;-20
2021/01/27 09:02:59;;;;;;;12.90;7.70;;;;;;;-0.56;100.00;98150.12;3641304;79;43395;-20
2021/01/27 09:08:07;;;;;;;11.83;7.20;;;;;;;-0.51;100.00;98140.07;3720107;79;44565;-19
2021/01/27 09:13:25;;;;;;;12.20;7.10;;;;;;;-0.41;100.00;98141.66;3726594;77;43025;-19
2021/01/27 09:18:31;;;;;;;9.77;6.40;;;;;;;-0.36;100.00;98136.44;3725042;79;43450;-19
2021/01/27 09:23:37;;;;;;;10.53;6.63;;;;;;;-0.35;100.00;98138.60;3674541;78;44018;-19
2021/01/27 09:28:43;;;;;;;12.03;7.20;;;;;;;-0.21;100.00;98135.08;3677068;78;43403;-19
2021/01/27 09:33:50;;;;;;;11.97;5.80;;;;;;;-0.20;100.00;98139.42;3676500;78;43306;-19
2021/01/27 09:38:58;;;;;;;8.50;5.73;;;;;;;-0.11;100.00;98134.84;3673894;80;43152;-19
2021/01/27 09:44:05;;;;;;;11.17;6.87;;;;;;;-0.10;100.00;98132.57;3670850;78;43262;-19
2021/01/27 09:49:14;;;;;;;11.37;7.13;;;;;;;-0.14;100.00;98136.36;3673916;80;44707;-19
2021/01/27 09:54:22;;;;;;;9.07;6.40;;;;;;;-0.03;100.00;98125.91;3725657;77;43682;-20
2021/01/27 09:59:28;;;;;;;8.63;5.80;;;;;;;0.10;100.00;98121.12;3731078;77;43242;-20
2021/01/27 10:04:37;;;;;;;7.60;5.23;;;;;;;0.28;100.00;98109.76;3671785;79;44440;-20
2021/01/27 10:09:51;;;;;;;8.30;6.20;;;;;;;0.37;100.00;98111.77;3665038;80;44450;-20
2021/01/27 10:15:05;;;;;;;8.73;5.37;;;;;;;0.49;100.00;98105.27;3677292;79;43412;-20
2021/01/27 10:20:25;;;;;;;8.90;5.93;;;;;;;0.49;100.00;98107.45;3718934;77;44090;-20
2021/01/27 10:25:35;;;;;;;8.03;5.50;;;;;;;0.52;100.00;98095.32;3712374;77;43685;-19
2021/01/27 10:30:54;;;;;;;8.43;5.27;;;;;;;0.66;100.00;98098.33;3728734;77;43509;-20
2021/01/27 10:36:02;;;;;;;9.73;5.83;;;;;;;0.70;100.00;98083.91;3601936;81;44471;-20
2021/01/27 10:41:12;;;;;;;7.77;5.40;;;;;;;0.83;100.00;98069.77;3633560;79;43464;-20
2021/01/27 10:46:32;;;;;;;7.47;5.40;;;;;;;0.81;100.00;98071.21;3637142;79;43004;-20
2021/01/27 10:51:38;;;;;;;6.73;5.03;;;;;;;0.86;100.00;98065.58;3601295;81;44187;-19
2021/01/27 10:56:44;;;;;;;7.03;5.20;;;;;;;1.06;100.00;98061.51;3639964;79;43339;-20
2021/01/27 11:01:50;;;;;;;7.53;5.37;;;;;;;1.08;100.00;98055.63;3643804;79;44098;-20
2021/01/27 11:06:58;;;;;;;7.73;5.20;;;;;;;0.96;100.00;98040.59;3634034;81;43366;-20
2021/01/27 11:12:05;;;;;;;9.53;5.53;;;;;;;1.14;100.00;98048.53;3634526;79;44470;-21
2021/01/27 11:17:11;;;;;;;9.20;5.60;;;;;;;1.15;100.00;98044.92;3638013;81;43457;-20
2021/01/27 11:22:19;;;;;;;9.53;5.57;;;;;;;1.23;100.00;98040.39;3641773;79;44043;-20
2021/01/27 11:27:24;;;;;;;9.53;5.50;;;;;;;1.45;100.00;98034.36;3624803;81;44027;-20
2021/01/27 11:32:30;;;;;;;10.60;5.93;;;;;;;1.48;100.00;98023.50;3647975;79;44343;-21
2021/01/27 11:37:36;;;;;;;8.30;5.70;;;;;;;1.55;100.00;98011.95;3674735;79;43713;-19
2021/01/27 11:42:43;;;;;;;7.50;5.67;;;;;;;1.60;100.00;98009.80;3679320;80;43542;-21
2021/01/27 11:47:49;;;;;;;9.73;5.63;;;;;;;1.71;100.00;97996.20;3677084;80;43688;-21
2021/01/27 11:52:56;;;;;;;7.87;5.63;;;;;;;1.77;100.00;97993.93;3680228;79;44156;-21
2021/01/27 11:58:02;;;;;;;8.50;5.30;;;;;;;1.84;100.00;97986.34;3674226;80;43716;-22
2021/01/27 12:03:08;;;;;;;7.63;5.90;;;;;;;1.78;100.00;97985.47;3680268;80;44176;-22
2021/01/27 12:08:15;;;;;;;9.93;5.83;;;;;;;1.91;100.00;97991.54;3680871;79;43267;-21
2021/01/27 12:13:22;;;;;;;7.93;5.60;;;;;;;1.94;100.00;97971.39;3676396;79;43172;-21
2021/01/27 12:18:28;;;;;;;8.63;5.57;;;;;;;1.95;100.00;97969.56;3679854;80;44082;-21
2021/01/27 12:23:34;;;;;;;8.43;5.67;;;;;;;1.92;100.00;97971.15;3680840;80;44203;-22
2021/01/27 12:28:40;;;;;;;9.07;5.27;;;;;;;1.85;100.00;97967.62;3647803;79;43479;-22
2021/01/27 12:33:46;;;;;;;9.23;5.23;;;;;;;1.84;100.00;97952.64;3642676;79;44778;-22
2021/01/27 12:38:52;;;;;;;7.80;4.80;;;;;;;1.84;100.00;97949.98;3638500;79;42735;-21
2021/01/27 12:43:59;;;;;;;7.70;5.60;;;;;;;2.02;100.00;97937.59;3645324;80;43262;-21
2021/01/27 12:49:06;;;;;;;6.87;4.70;;;;;;;2.25;100.00;97933.12;3727877;78;44484;-21
2021/01/27 12:54:13;;;;;;;8.33;5.37;;;;;;;2.21;100.00;97913.55;3728781;77;44112;-21
2021/01/27 12:59:19;;;;;;;8.37;5.73;;;;;;;2.40;100.00;97900.52;3725951;79;43519;-21
2021/01/27 13:04:25;;;;;;;7.67;5.30;;;;;;;2.39;100.00;97908.59;3646227;79;43237;-20
2021/01/27 13:09:31;;;;;;;7.60;4.43;;;;;;;2.43;100.00;97892.27;3645588;79;43611;-21
2021/01/27 13:14:38;;;;;;;7.23;4.37;;;;;;;2.31;100.00;97893.25;3643940;80;43396;-21
2021/01/27 13:19:46;;;;;;;6.40;4.37;;;;;;;2.50;100.00;97888.63;3724824;79;43281;-21
2021/01/27 13:24:52;;;;;;;7.90;4.20;;;;;;;2.34;100.00;97881.55;3735016;78;43473;-21
2021/01/27 13:29:58;;;;;;;5.80;3.90;;;;;;;2.37;100.00;97876.83;3756241;77;44785;-21
2021/01/27 13:35:06;;;;;;;6.10;4.00;;;;;;;2.04;100.00;97876.35;3810518;76;43238;-21
2021/01/27 13:40:17;;;;;;;7.87;4.30;;;;;;;1.95;100.00;97872.59;3818991;77;44390;-21
2021/01/27 13:45:26;;;;;;;9.33;4.53;;;;;;;1.90;100.00;97864.16;3811879;76;43348;-21
2021/01/27 13:50:33;;;;;;;8.20;4.40;;;;;;;1.92;100.00;97860.41;3698489;80;44377;-21
2021/01/27 13:55:38;;;;;;;4.47;3.20;;;;;;;1.84;100.00;97854.86;3819573;76;42677;-21
2021/01/27 14:00:47;;;;;;;5.63;3.67;;;;;;;1.90;100.00;97838.93;3807176;76;26753;-21
2021/01/27 14:05:53;;;;;;;4.20;3.07;;;;;;;1.87;100.00;97836.50;3813787;76;43254;-21
2021/01/27 14:10:59;;;;;;;5.33;2.90;;;;;;;1.89;100.00;97825.28;3810005;77;44479;-22
2021/01/27 14:16:07;;;;;;;5.33;3.20;;;;;;;1.90;100.00;97811.04;3817084;76;43407;-22
2021/01/27 14:21:12;;;;;;;3.93;2.83;;;;;;;1.76;100.00;97794.38;3811195;77;43690;-22
2021/01/27 14:26:20;;;;;;;4.33;2.90;;;;;;;1.71;100.00;97797.87;3810233;76;44205;-22
2021/01/27 14:31:26;;;;;;;4.87;3.30;;;;;;;1.58;100.00;97799.82;3800747;77;43685;-22
2021/01/27 14:36:32;;;;;;;4.13;2.73;;;;;;;1.51;100.00;97800.78;3807502;76;43327;-22
2021/01/27 14:41:39;;;;;;;5.43;3.00;;;;;;;1.33;100.00;97805.20;3805470;77;43669;-22
2021/01/27 14:46:47;;;;;;;4.37;2.73;;;;;;;1.22;100.00;97798.55;3807295;76;44098;-21
2021/01/27 14:51:55;;;;;;;5.27;3.00;;;;;;;1.33;100.00;97803.05;3801809;76;43682;-22
2021/01/27 14:57:01;;;;;;;4.83;3.00;;;;;;;1.11;100.00;97804.70;3808646;77;44065;-22
2021/01/27 15:02:07;;;;;;;5.57;3.70;;;;;;;1.00;100.00;97802.02;3806962;76;44011;-22
2021/01/27 15:07:14;;;;;;;4.67;2.70;;;;;;;0.80;100.00;97796.88;3814296;76;44050;-22
2021/01/27 15:12:19;;;;;;;3.40;2.90;;;;;;;0.79;100.00;97800.50;3803910;76;43971;-22
2021/01/27 15:17:28;;;;;;;4.47;2.70;;;;;;;0.72;100.00;97800.11;3804568;77;43731;-22
2021/01/27 15:22:34;;;;;;;4.23;2.80;;;;;;;0.74;100.00;97800.34;3804718;76;43337;-21
2021/01/27 15:27:41;;;;;;;4.07;2.60;;;;;;;0.72;100.00;97798.78;3807325;77;44068;-22
2021/01/27 15:32:48;;;;;;;5.03;3.20;;;;;;;0.67;100.00;97800.91;3800219;76;43246;-21
2021/01/27 15:37:54;;;;;;;6.60;3.30;;;;;;;0.61;100.00;97803.08;3809296;76;43383;-21
2021/01/27 15:43:00;;;;;;;4.93;3.13;;;;;;;0.59;100.00;97796.17;3803921;76;44057;-22
2021/01/27 15:48:07;;;;;;;4.10;3.10;;;;;;;0.57;100.00;97794.98;3807287;77;43709;-22
2021/01/27 15:53:14;;;;;;;6.20;3.40;;;;;;;0.61;100.00;97785.84;3802291;76;44055;-22
2021/01/27 15:58:20;;;;;;;5.30;3.73;;;;;;;0.56;100.00;97781.36;3794753;77;43997;-22
2021/01/27 16:03:26;;;;;;;5.17;3.67;;;;;;;0.51;100.00;97778.22;3801033;76;44073;-22
2021/01/27 16:08:32;;;;;;;5.97;3.70;;;;;;;0.42;100.00;97770.92;3803528;77;44450;-21
2021/01/27 16:13:37;;;;;;;4.80;3.40;;;;;;;0.45;100.00;97787.47;3805976;76;44088;-21
2021/01/27 16:18:43;;;;;;;6.70;3.93;;;;;;;0.44;100.00;97784.91;3807907;77;43324;-21
2021/01/27 16:23:49;;;;;;;7.17;4.47;;;;;;;0.44;100.00;97775.64;3812440;76;43406;-23
2021/01/27 16:28:55;;;;;;;5.60;4.00;;;;;;;0.42;100.00;97775.77;3803279;77;43724;-22
2021/01/27 16:34:01;;;;;;;6.17;4.00;;;;;;;0.44;100.00;97787.56;3805059;76;43677;-22
2021/01/27 16:39:11;;;;;;;7.00;4.13;;;;;;;0.42;100.00;97774.90;3802632;77;43686;-21
2021/01/27 16:44:16;;;;;;;10.90;5.53;;;;;;;0.41;100.00;97776.72;3808256;76;43722;-20
2021/01/27 16:49:22;;;;;;;5.43;4.40;;;;;;;0.39;100.00;97768.52;3807104;77;44196;-21
2021/01/27 16:54:29;;;;;;;8.30;4.50;;;;;;;0.33;100.00;97772.94;3808088;76;44070;-21
2021/01/27 16:59:35;;;;;;;5.17;4.00;;;;;;;0.26;100.00;97760.16;3801838;77;43412;-21
2021/01/27 17:04:40;;;;;;;5.50;4.30;;;;;;;0.29;100.00;97757.26;3811482;76;44071;-21
2021/01/27 17:09:46;;;;;;;6.87;4.80;;;;;;;0.27;100.00;97761.84;3801844;77;43717;-21
2021/01/27 17:14:52;;;;;;;5.80;4.27;;;;;;;0.25;100.00;97753.16;3809314;76;44231;-21
2021/01/27 17:19:58;;;;;;;7.03;4.70;;;;;;;0.21;100.00;97750.36;3803168;76;43257;-22
2021/01/27 17:25:06;;;;;;;5.57;4.37;;;;;;;0.21;100.00;97758.31;3798392;76;44081;-21
2021/01/27 17:30:14;;;;;;;5.80;4.50;;;;;;;0.22;100.00;97765.80;3789844;77;44020;-22
2021/01/27 17:35:22;;;;;;;7.63;4.83;;;;;;;0.21;100.00;97772.88;3795909;77;43686;-21
2021/01/27 17:40:28;;;;;;;7.73;5.20;;;;;;;0.21;100.00;97774.20;3789702;77;44083;-21
2021/01/27 17:45:36;;;;;;;6.77;5.00;;;;;;;0.22;100.00;97771.09;3789891;76;43686;-21
2021/01/27 17:50:42;;;;;;;8.93;5.27;;;;;;;0.20;100.00;97765.88;3792618;76;44561;-21
2021/01/27 17:55:50;;;;;;;8.73;5.10;;;;;;;0.25;100.00;97756.27;3802193;76;43316;-21
2021/01/27 18:00:57;;;;;;;8.20;5.00;;;;;;;0.18;100.00;97755.88;3793169;77;43179;-20
2021/01/27 18:06:04;;;;;;;5.57;4.53;;;;;;;0.20;100.00;97751.31;3794212;76;43725;-21
2021/01/27 18:11:10;;;;;;;6.33;4.87;;;;;;;0.20;100.00;97757.11;3794044;77;44104;-21
2021/01/27 18:16:17;;;;;;;5.93;4.50;;;;;;;0.21;100.00;97749.03;3722900;78;43968;-21
2021/01/27 18:21:25;;;;;;;7.63;4.77;;;;;;;0.19;100.00;97749.62;3696429;78;44117;-21
2021/01/27 18:26:31;;;;;;;7.33;4.97;;;;;;;0.17;100.00;97762.16;3691514;78;42693;-21
2021/01/27 18:31:38;;;;;;;7.03;4.63;;;;;;;0.15;100.00;97748.18;3739398;78;489510;-21
2021/01/27 18:36:44;;;;;;;6.17;4.40;;;;;;;0.19;100.00;97735.55;3749101;78;43716;-20
2021/01/27 18:41:50;;;;;;;6.00;3.87;;;;;;;0.16;100.00;97741.92;3712738;80;43304;-21
2021/01/27 18:46:56;;;;;;;6.13;4.60;;;;;;;0.15;100.00;97745.53;3744974;78;44063;-21
2021/01/27 18:52:02;;;;;;;6.07;4.43;;;;;;;0.17;100.00;97738.32;3748089;77;43071;-21
2021/01/27 18:57:09;;;;;;;6.43;4.67;;;;;;;0.14;100.00;97738.05;3748937;78;43210;-21
2021/01/27 19:02:16;;;;;;;6.90;4.67;;;;;;;0.18;100.00;97734.69;3752849;77;43705;-21
2021/01/27 19:07:23;;;;;;;7.77;4.33;;;;;;;0.16;100.00;97727.36;3752555;79;43713;-21
2021/01/27 19:12:30;;;;;;;6.13;4.40;;;;;;;0.15;100.00;97725.66;3752456;77;43011;-21
2021/01/27 19:17:36;;;;;;;6.27;4.47;;;;;;;0.17;100.00;97715.80;3743240;78;43482;-21
2021/01/27 19:22:43;;;;;;;6.10;4.67;;;;;;;0.17;100.00;97727.73;3752329;77;43715;-20
2021/01/27 19:27:49;;;;;;;6.30;4.60;;;;;;;0.20;100.00;97726.15;3748541;78;44268;-20
2021/01/27 19:32:56;;;;;;;5.80;4.23;;;;;;;0.21;100.00;97728.34;3680661;77;287087;-20
2021/01/27 19:38:02;;;;;;;6.23;4.40;;;;;;;0.21;100.00;97720.39;3661961;80;43558;-20
2021/01/27 19:43:10;;;;;;;5.77;4.33;;;;;;;0.24;100.00;97713.05;3658560;81;43558;-20
2021/01/27 19:48:18;;;;;;;5.80;4.40;;;;;;;0.27;100.00;97706.67;3576851;81;44015;-20
2021/01/27 19:53:27;;;;;;;5.80;4.30;;;;;;;0.28;100.00;97708.38;3657635;80;44075;-21
2021/01/27 19:58:34;;;;;;;5.87;4.20;;;;;;;0.33;100.00;97713.32;3656713;80;44323;-21
2021/01/27 20:03:42;;;;;;;6.67;4.33;;;;;;;0.38;100.00;97711.19;3658405;80;43677;-21
2021/01/27 20:08:51;;;;;;;4.93;3.90;;;;;;;0.44;100.00;97706.73;3659466;80;43974;-21
2021/01/27 20:14:00;;;;;;;5.33;3.97;;;;;;;0.48;100.00;97710.00;3657977;80;43682;-21
2021/01/27 20:19:08;;;;;;;5.20;3.90;;;;;;;0.53;100.00;97716.64;3656345;80;43282;-21
2021/01/27 20:24:15;;;;;;;4.60;3.80;;;;;;;0.52;100.00;97718.95;3657906;80;44027;-21
2021/01/27 20:29:22;;;;;;;5.67;4.53;;;;;;;0.48;100.00;97716.16;3658313;80;43667;-21
2021/01/27 20:34:28;;;;;;;5.90;4.33;;;;;;;0.56;100.00;97708.97;3657364;81;44822;-21
2021/01/27 20:39:34;;;;;;;6.10;4.30;;;;;;;0.62;100.00;97707.16;3657258;80;43375;-22
2021/01/27 20:44:40;;;;;;;5.37;3.80;;;;;;;0.60;100.00;97710.40;3658153;81;44419;-22
2021/01/27 20:49:46;;;;;;;5.20;3.80;;;;;;;0.59;100.00;97704.27;3658410;80;43448;-22
2021/01/27 20:54:51;;;;;;;4.77;3.80;;;;;;;0.66;100.00;97704.65;3661439;80;43979;-17
2021/01/27 20:59:57;;;;;;;6.07;4.10;;;;;;;0.63;100.00;97706.20;3658610;80;43655;-18
2021/01/27 21:05:04;;;;;;;5.40;4.00;;;;;;;0.60;100.00;97702.45;3624363;81;43416;-16
2021/01/27 21:10:15;;;;;;;6.13;4.40;;;;;;;0.59;100.00;97702.94;3659220;81;43347;-16
2021/01/27 21:15:26;;;;;;;5.07;4.10;;;;;;;0.59;100.00;97694.98;3655826;80;44386;-17
2021/01/27 21:20:33;;;;;;;5.73;4.10;;;;;;;0.64;100.00;97692.48;3662191;80;44653;-16
2021/01/27 21:25:40;;;;;;;4.80;4.03;;;;;;;0.65;100.00;97698.16;3659890;80;44148;-16
2021/01/27 21:30:47;;;;;;;7.50;5.00;;;;;;;0.65;100.00;97695.50;3662330;80;43578;-16
2021/01/27 21:35:55;;;;;;;4.80;3.83;;;;;;;0.66;100.00;97692.72;3657690;80;44051;-16
2021/01/27 21:41:03;;;;;;;4.63;3.77;;;;;;;0.68;100.00;97686.83;3665962;79;44035;-16
2021/01/27 21:46:12;;;;;;;4.20;3.63;;;;;;;0.65;100.00;97684.89;3663182;80;43370;-16
2021/01/27 21:51:21;;;;;;;4.73;3.93;;;;;;;0.68;100.00;97681.52;3661953;80;43428;-17
2021/01/27 21:56:27;;;;;;;5.07;3.70;;;;;;;0.71;100.00;97684.41;3662142;81;44812;-17
2021/01/27 22:01:34;;;;;;;5.30;3.70;;;;;;;0.71;100.00;97685.24;3666010;79;44082;-16
2021/01/27 22:06:40;;;;;;;5.10;3.67;;;;;;;0.75;100.00;97686.71;3663600;80;44754;-17
2021/01/27 22:11:47;;;;;;;4.23;3.47;;;;;;;0.75;100.00;97695.16;3661983;81;42945;-16
2021/01/27 22:16:52;;;;;;;6.53;3.90;;;;;;;0.76;100.00;97695.52;3663022;79;44060;-16
2021/01/27 22:21:59;;;;;;;4.80;3.80;;;;;;;0.75;100.00;97688.03;3662529;81;42908;-16
2021/01/27 22:27:07;;;;;;;4.27;3.47;;;;;;;0.75;100.00;97680.08;3651081;80;43685;-16
2021/01/27 22:32:13;;;;;;;4.13;3.60;;;;;;;0.79;100.00;97666.10;3615202;82;43359;-16
2021/01/27 22:37:19;;;;;;;3.73;3.17;;;;;;;0.79;100.00;97679.36;3614784;81;43991;-16
2021/01/27 22:42:25;;;;;;;5.37;3.30;;;;;;;0.81;100.00;97681.41;3616302;81;43665;-16
2021/01/27 22:47:31;;;;;;;3.50;3.03;;;;;;;0.81;100.00;97695.17;3616228;81;43680;-16
2021/01/27 22:52:38;;;;;;;3.77;2.83;;;;;;;0.82;100.00;97695.53;3612451;82;42128;-16
2021/01/27 22:57:44;;;;;;;4.23;3.37;;;;;;;0.80;100.00;97701.43;3614587;82;43612;-16
2021/01/27 23:02:52;;;;;;;3.47;3.07;;;;;;;0.86;100.00;97697.83;3612609;82;43689;-16
2021/01/27 23:08:00;;;;;;;3.80;3.10;;;;;;;0.88;100.00;97694.55;3615890;81;43419;-16
2021/01/27 23:13:08;;;;;;;3.73;3.23;;;;;;;0.91;100.00;97702.28;3612737;82;43406;-16
2021/01/27 23:18:18;;;;;;;3.60;2.93;;;;;;;0.90;100.00;97707.72;3616104;82;43710;-16
2021/01/27 23:23:26;;;;;;;3.80;3.07;;;;;;;0.88;100.00;97694.55;3514578;83;43676;-16
2021/01/27 23:28:35;;;;;;;3.43;2.83;;;;;;;0.87;100.00;97686.27;3631575;80;43697;-17
2021/01/27 23:33:43;;;;;;;3.10;2.60;;;;;;;0.90;100.00;97679.38;3660077;80;44101;-16
2021/01/27 23:38:50;;;;;;;3.47;2.73;;;;;;;0.90;100.00;97671.41;3658012;81;44604;-17
2021/01/27 23:43:57;;;;;;;2.93;2.63;;;;;;;0.92;100.00;97685.41;3658973;80;43077;-17
2021/01/27 23:49:03;;;;;;;3.53;2.87;;;;;;;0.97;100.00;97674.94;3655696;81;44226;-17
2021/01/27 23:54:12;;;;;;;3.93;2.90;;;;;;;0.99;100.00;97669.03;3659739;80;43681;-18
2021/01/27 23:59:18;;;;;;;3.33;2.40;;;;;;;1.01;100.00;97671.06;3656490;81;44095;-17
